Amunt
Inicio > meteoXarxa
Fes-te'n soci

METEOXARXA

la Pobla de Benifassà
Ubicació Colònia Europa
Comarca el Baix Maestrat
Altitud (msnm) 0
Posició geogràfica 40° 41' 49.92" N, 00° 9' 54.00" E
Model Instrumentació oficial
Presa de dades
Font de les dades AEMET
Estadístiques. Resum
Data Temperatura (ºC) Humitat (%) Pressió (hPa) Vent (km/h) Precipit. (mm)
Mínima Mitjana Màxima Mínima Mitjana Màxima Mínima Mitjana Màxima Predom. Mitjana Ràfega màxima Total Dies de pluja
Mínima Mitjana Màxima Mínima Mitjana Màxima
Últimes dades diàries
18-01-2017 -9,4     -5,5     -1,7 58,0 0,0  
17-01-2017 -7,5     -2,8     1,9 99,0 0,0  
16-01-2017 0,7     2,7     4,7 101,0 3,8  
15-01-2017 -2,0     0,7     3,4 86,0 0,0  
14-01-2017 -2,7     -0,6     1,5 99,0 0,0  
13-01-2017 -1,8     2,8     7,4 123,0 1,0  
12-01-2017 5,2     9,9     14,7 75,0 0,0  
11-01-2017 1,0     4,3     7,7 95,0 0,0  
10-01-2017 1,2     2,8     4,3 98,0 1,6  
09-01-2017 -0,5     3,2     6,8 70,0 0,0  
08-01-2017 -0,3     3,6     7,4 51,0 0,0  
07-01-2017 0,2     4,1     8,0 36,0 0,0  
06-01-2017 -1,3     3,3     7,9 35,0 0,0  
05-01-2017 0,5     4,3     8,0 95,0 0,0  
04-01-2017 3,4     6,0     8,5 91,0 0,0  
03-01-2017 5,3     8,3     11,2 67,0 0,0  
02-01-2017 -1,3     3,2     7,7 29,0 0,2  
01-01-2017 -0,1     3,7     7,4 17,0 0,0  
31-12-2016 -0,2     3,1     6,5 26,0 0,0  
30-12-2016 1,8     4,4     7,0 17,0 0,0  
29-12-2016 4,5     9,6     14,6 26,0 0,0  
28-12-2016 4,7     8,5     12,4 24,0 0,0  
27-12-2016 3,0     8,2     13,3 19,0 0,0  
26-12-2016 4,0     9,9     15,9 23,0 0,0  
25-12-2016 3,4     7,5     11,5 46,0 0,0  
24-12-2016 4,4     6,0     7,7 54,0 0,0  
23-12-2016 4,9     6,5     8,2 50,0 0,0  
22-12-2016 2,3     5,3     8,3 40,0 0,0  
21-12-2016 -0,3     2,8     5,9 65,0 0,0  
20-12-2016 0,0     2,1     4,2 71,0 2,2  
19-12-2016 -0,8     1,1     2,9 44,0 1,8  
18-12-2016 1,2     2,3     3,3 34,0 0,0  
Dades del mes en curs (actualitzades fins l'últim dia disponible)
01/2017 -9,4 -0,5 5,3 3,0 -1,7 6,5 14,7   123,0 6,6  
Últimes dades mensuals
12/2016 -0,8 2,9 6,3 5,8 2,9 8,6 15,9 71,0 63,8 10
11/2016 -0,7 3,8 10,7 7,1 5,1 10,3 18,9 100,0 81,2 13
10/2016 3,2 9,2 13,1 12,8 9,6 16,5 22,9 60,0 28,2 7
09/2016 6,9 12,1 21,5 16,5 13,4 20,9 31,6 83,0 58,6 7
08/2016 7,3 13,5 17,0 19,0 19,0 24,6 27,6 66,0 8,8 6
07/2016 6,1 14,4 18,5 19,8 20,2 25,2 33,3 75,0 2,2 4
06/2016 5,9 11,1 16,8 16,1 15,0 21,1 27,0 81,0 46,0 7
05/2016 -1,2 6,3 10,9 10,7 8,6 15,2 20,7 92,0 73,0 10
04/2016 -1,3 3,6 8,5 7,6 6,7 11,6 17,2 102,0 67,6 13
03/2016 -2,9 0,7 7,1 4,3 2,3 7,9 15,4 114,0 61,6 10
02/2016 -5,1 1,4 8,4 5,0 1,6 8,7 14,5 107,0 49,6 11
01/2016 -1,8 3,5 7,5 6,6 2,3 9,8 15,2 93,0 22,0 5
12/2015 1,9 5,1 9,6 8,5 7,7 11,8 16,0 67,0 0,0 0
Dades de l'any en curs (actualitzades fins l'últim dia disponible)
2017 -9,4 -0,5 5,3 3,0 -1,7 6,5 14,7   123,0 6,6  
Últimes dades anuals
2012 475,0
2013 -7,9 5,9 11,5 9,8 13,0 13,7 27,1 136,0 699,0 123